createdAt,value
2023-08-11T00:00:01.691Z,101688.63
2023-08-11T00:02:41.406Z,101684.81
2023-08-11T00:05:12.595Z,101679.25
2023-08-11T00:07:39.517Z,101685.66
2023-08-11T00:10:09.059Z,101683.94
2023-08-11T00:12:36.463Z,101672.81
2023-08-11T00:15:03.589Z,101679.66
2023-08-11T00:17:30.514Z,101674.94
2023-08-11T00:19:58.181Z,101679.25
2023-08-11T00:22:25.288Z,101678.59
2023-08-11T00:24:52.167Z,101670.47
2023-08-11T00:27:21.024Z,101672.16
2023-08-11T00:29:47.946Z,101681.38
2023-08-11T00:32:14.898Z,101677.53
2023-08-11T00:34:41.776Z,101679.25
2023-08-11T00:37:09.230Z,101671.97
2023-08-11T00:39:36.886Z,101671.97
2023-08-11T00:42:04.115Z,101674.75
2023-08-11T00:44:31.369Z,101665.56
2023-08-11T00:46:59.121Z,101661.94
2023-08-11T00:49:26.063Z,101662.59
2023-08-11T00:51:53.636Z,101664.72
2023-08-11T00:54:22.459Z,101661.06
2023-08-11T00:56:50.287Z,101663.44
2023-08-11T00:59:20.430Z,101662.59
2023-08-11T01:01:47.325Z,101652.53
2023-08-11T01:04:14.392Z,101648.06
2023-08-11T01:06:46.223Z,101644.00
2023-08-11T01:09:31.150Z,101638.84
2023-08-11T01:12:24.845Z,101640.88
2023-08-11T01:15:16.255Z,101631.88
2023-08-11T01:17:46.526Z,101629.28
2023-08-11T01:20:17.264Z,101633.09
2023-08-11T01:22:54.911Z,101619.47
2023-08-11T01:25:22.598Z,101633.09
2023-08-11T01:27:56.929Z,101635.28
2023-08-11T01:30:26.390Z,101619.44
2023-08-11T01:32:53.569Z,101617.53
2023-08-11T01:35:33.615Z,101618.56
2023-08-11T01:38:10.017Z,101620.31
2023-08-11T01:40:38.264Z,101620.31
2023-08-11T01:43:08.548Z,101617.53
2023-08-11T01:45:35.788Z,101614.06
2023-08-11T01:48:04.689Z,101615.16
2023-08-11T01:50:34.505Z,101621.34
2023-08-11T01:53:01.754Z,101620.69
2023-08-11T01:55:30.255Z,101622.41
2023-08-11T01:57:59.756Z,101619.44
2023-08-11T02:00:29.616Z,101624.13
2023-08-11T02:02:58.685Z,101616.84
2023-08-11T02:05:26.714Z,101628.63
2023-08-11T02:07:56.649Z,101618.56
2023-08-11T02:10:24.291Z,101610.25
2023-08-11T02:12:51.143Z,101618.56
2023-08-11T02:15:18.137Z,101618.56
2023-08-11T02:17:45.429Z,101613.03
2023-08-11T02:20:22.637Z,101612.19
2023-08-11T02:22:50.522Z,101609.19
2023-08-11T02:25:17.993Z,101614.75
2023-08-11T02:27:45.404Z,101600.19
2023-08-11T02:30:13.905Z,101601.06
2023-08-11T02:32:42.685Z,101594.25
2023-08-11T02:35:11.784Z,101588.44
2023-08-11T02:37:40.205Z,101590.81
2023-08-11T02:40:11.878Z,101592.53
2023-08-11T02:42:45.174Z,101595.53
2023-08-11T02:45:12.648Z,101609.19
2023-08-11T02:47:43.420Z,101601.53
2023-08-11T02:50:11.450Z,101599.16
2023-08-11T02:52:38.735Z,101609.19
2023-08-11T02:55:08.074Z,101613.88
2023-08-11T02:57:36.354Z,101605.75
2023-08-11T03:00:16.105Z,101609.19
2023-08-11T03:02:47.424Z,101606.44
2023-08-11T03:05:16.676Z,101613.03
2023-08-11T03:07:45.115Z,101616.66
2023-08-11T03:10:12.420Z,101615.16
2023-08-11T03:12:41.758Z,101614.06
2023-08-11T03:15:10.017Z,101615.81
2023-08-11T03:17:38.411Z,101611.28
2023-08-11T03:20:16.346Z,101616.84
2023-08-11T03:22:46.154Z,101608.53
2023-08-11T03:25:16.654Z,101604.91
2023-08-11T03:27:44.692Z,101601.47
2023-08-11T03:30:19.076Z,101604.03
2023-08-11T03:32:50.747Z,101595.06
2023-08-11T03:35:19.378Z,101594.88
2023-08-11T03:37:48.413Z,101591.59
2023-08-11T03:40:18.051Z,101593.31
2023-08-11T03:42:51.616Z,101601.63
2023-08-11T03:45:18.529Z,101586.06
2023-08-11T03:47:45.469Z,101595.44
2023-08-11T03:50:18.543Z,101600.97
2023-08-11T03:52:47.437Z,101594.59
2023-08-11T03:55:14.894Z,101592.66
2023-08-11T03:57:41.852Z,101590.06
2023-08-11T04:00:16.417Z,101589.44
2023-08-11T04:02:50.306Z,101580.91
2023-08-11T04:05:18.658Z,101587.50
2023-08-11T04:07:45.590Z,101586.00
2023-08-11T04:10:12.732Z,101587.72
2023-08-11T04:12:40.008Z,101583.22
2023-08-11T04:15:07.723Z,101588.78
2023-08-11T04:17:35.021Z,101584.28
2023-08-11T04:20:02.261Z,101592.84
2023-08-11T04:22:38.537Z,101587.94
2023-08-11T04:25:11.733Z,101577.47
2023-08-11T04:27:42.719Z,101594.53
2023-08-11T04:30:11.689Z,101587.28
2023-08-11T04:32:40.214Z,101588.97
2023-08-11T04:35:09.266Z,101594.72
2023-08-11T04:37:38.537Z,101591.09
2023-08-11T04:40:14.753Z,101591.94
2023-08-11T04:42:43.491Z,101594.31
2023-08-11T04:45:13.336Z,101585.19
2023-08-11T04:47:41.469Z,101582.38
2023-08-11T04:50:12.955Z,101583.81
2023-08-11T04:52:40.156Z,101572.72
2023-08-11T04:55:08.790Z,101580.41
2023-08-11T04:57:36.885Z,101578.69
2023-08-11T05:00:07.982Z,101566.28
2023-08-11T05:02:34.991Z,101574.63
2023-08-11T05:05:02.099Z,101574.63
2023-08-11T05:07:30.283Z,101571.84
2023-08-11T05:10:00.231Z,101563.53
2023-08-11T05:12:27.129Z,101561.59
2023-08-11T05:14:54.504Z,101561.78
2023-08-11T05:17:21.371Z,101559.88
2023-08-11T05:19:48.326Z,101563.53
2023-08-11T05:22:15.217Z,101557.09
2023-08-11T05:24:42.101Z,101561.13
2023-08-11T05:27:10.049Z,101561.78
2023-08-11T05:29:37.195Z,101554.50
2023-08-11T05:32:04.654Z,101555.41
2023-08-11T05:34:31.614Z,101566.28
2023-08-11T05:37:01.328Z,101559.88
2023-08-11T05:39:30.007Z,101559.00
2023-08-11T05:41:58.001Z,101559.00
2023-08-11T05:44:24.974Z,101556.88
2023-08-11T05:46:51.944Z,101547.91
2023-08-11T05:49:18.813Z,101557.97
2023-08-11T05:51:45.713Z,101556.03
2023-08-11T05:54:12.644Z,101555.19
2023-08-11T05:56:39.555Z,101543.22
2023-08-11T05:59:06.430Z,101551.34
2023-08-11T06:01:33.605Z,101553.47
2023-08-11T06:04:00.589Z,101556.88
2023-08-11T06:06:27.833Z,101556.88
2023-08-11T06:08:56.010Z,101556.88
2023-08-11T06:11:22.959Z,101552.00
2023-08-11T06:13:49.883Z,101557.53
2023-08-11T06:16:16.802Z,101551.34
2023-08-11T06:18:43.701Z,101555.66
2023-08-11T06:21:10.817Z,101560.97
2023-08-11T06:23:37.780Z,101559.28
2023-08-11T06:26:04.662Z,101562.03
2023-08-11T06:28:31.534Z,101561.19
2023-08-11T06:30:59.753Z,101558.19
2023-08-11T06:33:26.857Z,101565.47
2023-08-11T06:35:54.189Z,101571.03
2023-08-11T06:38:21.170Z,101565.47
2023-08-11T06:40:48.802Z,101562.50
2023-08-11T06:43:15.683Z,101566.97
2023-08-11T06:45:46.111Z,101559.53
2023-08-11T06:48:13.433Z,101566.78
2023-08-11T06:50:40.425Z,101570.19
2023-08-11T06:53:07.398Z,101571.94
2023-08-11T06:55:34.306Z,101575.75
2023-08-11T06:58:03.161Z,101568.94
2023-08-11T07:00:30.092Z,101578.78
2023-08-11T07:02:57.592Z,101570.66
2023-08-11T07:05:24.528Z,101585.19
2023-08-11T07:07:51.377Z,101582.19
2023-08-11T07:10:18.478Z,101586.91
2023-08-11T07:12:45.366Z,101587.75
2023-08-11T07:15:12.302Z,101592.28
2023-08-11T07:17:39.449Z,101592.28
2023-08-11T07:20:07.613Z,101587.41
2023-08-11T07:22:34.523Z,101579.91
2023-08-11T07:25:01.474Z,101593.59
2023-08-11T07:27:28.546Z,101589.53
2023-08-11T07:29:55.425Z,101581.44
2023-08-11T07:32:22.325Z,101589.34
2023-08-11T07:34:49.223Z,101575.47
2023-08-11T07:37:16.201Z,101578.03
2023-08-11T07:39:43.693Z,101580.63
2023-08-11T07:42:10.598Z,101581.25
2023-08-11T07:44:38.009Z,101578.50
2023-08-11T07:47:05.162Z,101580.22
2023-08-11T07:49:32.683Z,101591.97
2023-08-11T07:51:59.897Z,101588.13
2023-08-11T07:54:27.221Z,101582.56
2023-08-11T07:56:54.211Z,101588.75
2023-08-11T07:59:21.274Z,101587.06
2023-08-11T08:01:48.560Z,101586.66
2023-08-11T08:04:15.893Z,101578.53
2023-08-11T08:06:46.807Z,101589.22
2023-08-11T08:09:16.007Z,101590.09
2023-08-11T08:11:45.339Z,101580.03
2023-08-11T08:14:13.424Z,101596.94
2023-08-11T08:16:43.235Z,101591.38
2023-08-11T08:19:12.210Z,101590.31
2023-08-11T08:21:40.297Z,101594.81
2023-08-11T08:24:09.087Z,101596.53
2023-08-11T08:26:37.351Z,101590.31
2023-08-11T08:29:05.165Z,101599.97
2023-08-11T08:31:32.636Z,101597.38
2023-08-11T08:34:00.445Z,101592.69
2023-08-11T08:36:27.618Z,101591.63
2023-08-11T08:38:54.568Z,101590.56
2023-08-11T08:41:29.050Z,101586.06
2023-08-11T08:43:57.353Z,101593.97
2023-08-11T08:46:31.647Z,101589.09
2023-08-11T08:49:23.573Z,101586.13
2023-08-11T08:51:50.890Z,101585.44
2023-08-11T08:54:18.062Z,101590.16
2023-08-11T08:56:45.082Z,101590.16
2023-08-11T08:59:12.463Z,101580.78
2023-08-11T09:01:40.179Z,101592.94
2023-08-11T09:04:09.325Z,101592.72
2023-08-11T09:06:36.649Z,101584.59
2023-08-11T09:09:05.873Z,101589.09
2023-08-11T09:11:33.096Z,101591.88
2023-08-11T09:14:09.298Z,101588.25
2023-08-11T09:16:39.049Z,101585.88
2023-08-11T09:19:11.273Z,101585.88
2023-08-11T09:21:41.185Z,101593.19
2023-08-11T09:24:13.252Z,101593.19
2023-08-11T09:26:53.616Z,101593.41
2023-08-11T09:29:21.771Z,101589.31
2023-08-11T09:31:54.003Z,101582.06
2023-08-11T09:34:21.803Z,101587.19
2023-08-11T09:36:50.360Z,101579.94
2023-08-11T09:39:17.852Z,101577.16
2023-08-11T09:41:49.928Z,101575.66
2023-08-11T09:44:19.997Z,101583.34
2023-08-11T09:46:48.677Z,101578.66
2023-08-11T09:49:15.742Z,101580.38
2023-08-11T09:51:43.997Z,101566.03
2023-08-11T09:54:12.767Z,101575.03
2023-08-11T09:56:44.778Z,101576.97
2023-08-11T09:59:18.042Z,101569.06
2023-08-11T10:01:47.282Z,101570.13
2023-08-11T10:04:23.721Z,101568.44
2023-08-11T10:06:57.956Z,101571.41
2023-08-11T10:09:27.008Z,101566.09
2023-08-11T10:11:58.874Z,101567.13
2023-08-11T10:14:29.333Z,101572.88
2023-08-11T10:17:00.326Z,101566.28
2023-08-11T10:19:28.410Z,101579.28
2023-08-11T10:21:58.260Z,101570.97
2023-08-11T10:24:26.806Z,101583.81
2023-08-11T10:26:54.784Z,101582.06
2023-08-11T10:29:23.057Z,101577.41
2023-08-11T10:32:00.436Z,101561.63
2023-08-11T10:34:28.164Z,101556.88
2023-08-11T10:36:58.659Z,101568.63
2023-08-11T10:39:27.213Z,101558.59
2023-08-11T10:41:58.497Z,101555.63
2023-08-11T10:44:31.391Z,101555.63
2023-08-11T10:47:02.618Z,101557.09
2023-08-11T10:49:42.957Z,101556.25
2023-08-11T10:52:12.423Z,101554.97
2023-08-11T10:54:39.550Z,101561.38
2023-08-11T10:57:06.772Z,101561.19
2023-08-11T10:59:35.573Z,101560.81
2023-08-11T11:02:03.019Z,101558.03
2023-08-11T11:04:32.654Z,101558.03
2023-08-11T11:07:01.633Z,101558.66
2023-08-11T11:09:29.935Z,101567.00
2023-08-11T11:11:57.641Z,101566.81
2023-08-11T11:14:28.454Z,101558.47
2023-08-11T11:17:00.367Z,101562.53
2023-08-11T11:19:27.875Z,101553.34
2023-08-11T11:21:56.056Z,101557.81
2023-08-11T11:24:23.322Z,101548.63
2023-08-11T11:26:50.379Z,101546.69
2023-08-11T11:29:22.437Z,101554.00
2023-08-11T11:31:50.313Z,101551.00
2023-08-11T11:34:18.930Z,101545.44
2023-08-11T11:36:46.250Z,101548.44
2023-08-11T11:39:14.151Z,101553.59
2023-08-11T11:41:41.257Z,101540.75
2023-08-11T11:44:08.230Z,101542.47
2023-08-11T11:46:35.616Z,101552.28
2023-08-11T11:49:12.717Z,101553.38
2023-08-11T11:55:14.327Z,101544.41
2023-08-11T11:57:41.342Z,101539.91
2023-08-11T12:00:17.211Z,101538.19
2023-08-11T12:02:45.322Z,101534.78
2023-08-11T12:05:14.018Z,101533.03
2023-08-11T12:07:41.307Z,101521.53
2023-08-11T12:10:08.796Z,101534.38
2023-08-11T12:12:36.304Z,101529.66
2023-08-11T12:15:07.977Z,101535.22
2023-08-11T12:17:37.182Z,101532.63
2023-08-11T12:20:08.471Z,101533.28
2023-08-11T12:22:36.485Z,101525.78
2023-08-11T12:25:04.419Z,101533.91
2023-08-11T12:27:31.342Z,101524.94
2023-08-11T12:29:58.221Z,101524.72
2023-08-11T12:32:25.130Z,101525.56
2023-08-11T12:34:52.601Z,101535.66
2023-08-11T12:37:19.601Z,101521.09
2023-08-11T12:39:46.480Z,101521.75
2023-08-11T12:42:13.437Z,101518.31
2023-08-11T12:44:40.709Z,101517.25
2023-08-11T12:47:07.753Z,101517.25
2023-08-11T12:49:34.742Z,101515.31
2023-08-11T12:52:02.030Z,101517.25
2023-08-11T12:54:29.011Z,101509.53
2023-08-11T12:56:55.916Z,101512.53
2023-08-11T12:59:22.952Z,101506.13
2023-08-11T13:01:49.956Z,101508.47
2023-08-11T13:04:17.149Z,101501.00
2023-08-11T13:06:44.023Z,101498.22
2023-08-11T13:09:12.878Z,101502.69
2023-08-11T13:11:39.954Z,101502.50
2023-08-11T13:14:07.158Z,101502.69
2023-08-11T13:16:36.619Z,101500.56
2023-08-11T13:19:04.317Z,101498.88
2023-08-11T13:21:32.169Z,101504.44
2023-08-11T13:24:00.735Z,101502.69
2023-08-11T13:26:28.007Z,101502.69
2023-08-11T13:28:58.241Z,101508.06
2023-08-11T13:31:26.326Z,101510.00
2023-08-11T13:33:53.212Z,101504.44
2023-08-11T13:36:20.220Z,101502.69
2023-08-11T13:38:47.775Z,101490.75
2023-08-11T13:41:14.791Z,101499.72
2023-08-11T13:43:41.707Z,101504.63
2023-08-11T13:46:08.811Z,101505.47
2023-08-11T13:48:35.804Z,101498.22
2023-08-11T13:51:04.753Z,101495.44
2023-08-11T13:53:31.691Z,101495.44
2023-08-11T13:55:58.620Z,101502.69
2023-08-11T13:58:25.612Z,101491.59
2023-08-11T14:00:52.644Z,101496.28
2023-08-11T14:03:19.655Z,101482.59
2023-08-11T14:05:46.614Z,101486.03
2023-08-11T14:08:13.522Z,101478.78
2023-08-11T14:10:40.610Z,101483.25
2023-08-11T14:13:10.269Z,101478.78
2023-08-11T14:15:38.784Z,101486.88
2023-08-11T14:18:07.469Z,101478.78
2023-08-11T14:20:34.886Z,101489.88
2023-08-11T14:23:01.991Z,101496.72
2023-08-11T14:25:28.971Z,101493.97
2023-08-11T14:27:56.087Z,101489.44
2023-08-11T14:30:23.130Z,101490.28
2023-08-11T14:32:50.210Z,101487.31
2023-08-11T14:35:17.253Z,101496.72
2023-08-11T14:37:44.170Z,101495.00
2023-08-11T14:40:11.695Z,101497.56
2023-08-11T14:42:38.568Z,101496.72
2023-08-11T14:45:07.012Z,101492.88
2023-08-11T14:47:33.976Z,101493.75
2023-08-11T14:50:00.862Z,101485.63
2023-08-11T14:52:28.107Z,101491.16
2023-08-11T14:54:55.026Z,101484.53
2023-08-11T14:57:23.042Z,101476.81
2023-08-11T14:59:50.174Z,101487.31
2023-08-11T15:02:17.315Z,101472.34
2023-08-11T15:04:44.301Z,101472.34
2023-08-11T15:07:11.259Z,101475.13
2023-08-11T15:09:38.245Z,101473.63
2023-08-11T15:12:06.976Z,101471.06
2023-08-11T15:14:33.899Z,101474.50
2023-08-11T15:17:01.379Z,101477.28
2023-08-11T15:19:31.002Z,101465.53
2023-08-11T15:21:57.981Z,101464.44
2023-08-11T15:24:25.033Z,101463.38
2023-08-11T15:26:51.944Z,101458.66
2023-08-11T15:29:18.835Z,101470.63
2023-08-11T15:31:45.709Z,101456.72
2023-08-11T15:34:12.683Z,101459.50
2023-08-11T15:36:39.697Z,101459.50
2023-08-11T15:39:06.621Z,101454.84
2023-08-11T15:41:34.048Z,101462.28
2023-08-11T15:44:01.172Z,101453.94
2023-08-11T15:46:28.571Z,101457.63
2023-08-11T15:48:55.945Z,101461.25
2023-08-11T15:51:22.865Z,101460.41
2023-08-11T15:53:49.755Z,101468.50
2023-08-11T15:56:16.634Z,101453.53
2023-08-11T15:58:43.554Z,101456.53
2023-08-11T16:01:10.531Z,101450.13
2023-08-11T16:03:37.620Z,101451.19
2023-08-11T16:06:06.758Z,101450.13
2023-08-11T16:08:33.765Z,101445.63
2023-08-11T16:11:00.692Z,101442.84
2023-08-11T16:13:28.161Z,101441.78
2023-08-11T16:15:55.087Z,101433.44
2023-08-11T16:18:21.969Z,101429.81
2023-08-11T16:20:48.996Z,101429.81
2023-08-11T16:23:15.911Z,101435.38
2023-08-11T16:25:42.960Z,101432.59
2023-08-11T16:28:10.933Z,101432.81
2023-08-11T16:30:37.984Z,101436.44
2023-08-11T16:33:05.263Z,101435.59
2023-08-11T16:35:32.226Z,101437.28
2023-08-11T16:37:59.150Z,101435.59
2023-08-11T16:40:26.116Z,101432.16
2023-08-11T16:42:53.004Z,101432.59
2023-08-11T16:45:19.995Z,101435.59
2023-08-11T16:47:46.995Z,101441.16
2023-08-11T16:50:13.999Z,101441.16
2023-08-11T16:52:41.032Z,101445.81
2023-08-11T16:55:08.915Z,101449.69
2023-08-11T16:57:35.851Z,101456.09
2023-08-11T17:00:04.476Z,101446.06
2023-08-11T17:02:31.456Z,101462.28
2023-08-11T17:04:58.441Z,101456.94
2023-08-11T17:07:25.323Z,101454.41
2023-08-11T17:09:52.193Z,101460.59
2023-08-11T17:12:19.154Z,101463.38
2023-08-11T17:14:46.057Z,101454.41
2023-08-11T17:17:13.039Z,101456.09
2023-08-11T17:19:40.077Z,101459.09
2023-08-11T17:22:08.158Z,101455.03
2023-08-11T17:24:35.150Z,101450.53
2023-08-11T17:27:02.281Z,101456.09
2023-08-11T17:29:29.149Z,101456.09
2023-08-11T17:31:56.081Z,101454.41
2023-08-11T17:34:23.082Z,101454.41
2023-08-11T17:36:50.209Z,101463.78
2023-08-11T17:39:17.161Z,101456.09
2023-08-11T17:41:49.475Z,101464.44
2023-08-11T17:44:17.148Z,101465.53
2023-08-11T17:46:44.115Z,101459.97
2023-08-11T17:49:11.182Z,101472.78
2023-08-11T17:51:38.267Z,101461.00
2023-08-11T17:54:09.634Z,101474.91
2023-08-11T17:56:38.455Z,101467.41
2023-08-11T17:59:06.384Z,101463.78
2023-08-11T18:01:33.554Z,101466.38
2023-08-11T18:04:03.445Z,101465.53
2023-08-11T18:06:35.170Z,101465.53
2023-08-11T18:09:04.773Z,101470.00
2023-08-11T18:11:35.993Z,101471.06
2023-08-11T18:14:03.051Z,101466.38
2023-08-11T18:16:30.105Z,101471.06
2023-08-11T18:18:57.296Z,101464.63
2023-08-11T18:21:24.236Z,101474.91
2023-08-11T18:23:51.198Z,101479.41
2023-08-11T18:26:18.152Z,101480.47
2023-08-11T18:28:45.373Z,101465.94
2023-08-11T18:31:13.515Z,101467.66
2023-08-11T18:33:40.583Z,101468.50
2023-08-11T18:36:08.435Z,101467.66
2023-08-11T18:38:35.486Z,101471.06
2023-08-11T18:41:02.430Z,101468.50
2023-08-11T18:43:30.204Z,101464.88
2023-08-11T18:45:57.180Z,101470.44
2023-08-11T18:48:24.212Z,101476.00
2023-08-11T18:50:51.762Z,101483.25
2023-08-11T18:53:18.685Z,101478.78
2023-08-11T18:55:45.608Z,101484.34
2023-08-11T18:58:12.536Z,101490.75
2023-08-11T19:00:40.603Z,101478.78
2023-08-11T19:03:07.792Z,101478.09
2023-08-11T19:05:35.223Z,101479.41
2023-08-11T19:08:02.581Z,101476.63
2023-08-11T19:10:30.201Z,101486.03
2023-08-11T19:12:57.284Z,101495.44
2023-08-11T19:15:24.400Z,101493.31
2023-08-11T19:17:51.436Z,101490.53
2023-08-11T19:20:18.663Z,101493.31
2023-08-11T19:22:45.648Z,101495.44
2023-08-11T19:25:12.779Z,101493.31
2023-08-11T19:27:40.006Z,101498.88
2023-08-11T19:30:08.374Z,101504.44
2023-08-11T19:32:35.788Z,101507.22
2023-08-11T19:35:04.041Z,101501.66
2023-08-11T19:37:30.945Z,101492.44
2023-08-11T19:39:57.873Z,101505.28
2023-08-11T19:42:25.031Z,101504.44
2023-08-11T19:44:51.980Z,101502.28
2023-08-11T19:47:19.086Z,101499.72
2023-08-11T19:49:46.173Z,101500.56
2023-08-11T19:52:13.445Z,101499.50
2023-08-11T19:54:40.726Z,101502.28
2023-08-11T19:57:07.725Z,101497.56
2023-08-11T19:59:34.667Z,101488.41
2023-08-11T20:02:01.557Z,101498.44
2023-08-11T20:04:28.516Z,101491.81
2023-08-11T20:06:55.785Z,101483.88
2023-08-11T20:09:25.634Z,101489.03
2023-08-11T20:11:52.643Z,101494.59
2023-08-11T20:14:19.859Z,101493.31
2023-08-11T20:16:49.489Z,101497.16
2023-08-11T20:19:16.678Z,101490.72
2023-08-11T20:21:43.687Z,101488.63
2023-08-11T20:24:10.771Z,101496.06
2023-08-11T20:26:37.859Z,101489.66
2023-08-11T20:29:05.417Z,101489.66
2023-08-11T20:31:34.064Z,101484.13
2023-08-11T20:34:01.620Z,101482.38
2023-08-11T20:36:28.862Z,101477.50
2023-08-11T20:38:56.002Z,101470.22
2023-08-11T20:41:23.190Z,101460.81
2023-08-11T20:43:50.131Z,101463.81
2023-08-11T20:46:17.189Z,101462.94
2023-08-11T20:48:44.120Z,101455.25
2023-08-11T20:51:12.970Z,101454.38
2023-08-11T20:53:40.352Z,101461.03
2023-08-11T20:56:09.223Z,101464.44
2023-08-11T20:58:36.890Z,101459.09
2023-08-11T21:01:04.023Z,101455.25
2023-08-11T21:03:31.002Z,101464.44
2023-08-11T21:05:57.919Z,101462.94
2023-08-11T21:08:25.044Z,101466.38
2023-08-11T21:10:52.082Z,101475.78
2023-08-11T21:13:18.989Z,101474.72
2023-08-11T21:15:45.869Z,101474.94
2023-08-11T21:18:12.876Z,101465.72
2023-08-11T21:20:40.039Z,101473.19
2023-08-11T21:23:07.685Z,101481.34
2023-08-11T21:25:35.367Z,101478.56
2023-08-11T21:28:02.321Z,101474.06
2023-08-11T21:30:29.271Z,101486.06
2023-08-11T21:32:56.273Z,101484.13
2023-08-11T21:35:23.247Z,101482.38
2023-08-11T21:37:53.247Z,101484.34
2023-08-11T21:40:20.165Z,101486.91
2023-08-11T21:42:47.051Z,101481.34
2023-08-11T21:45:14.001Z,101483.06
2023-08-11T21:47:40.941Z,101484.75
2023-08-11T21:50:08.896Z,101487.75
2023-08-11T21:52:35.866Z,101487.75
2023-08-11T21:55:04.199Z,101484.75
2023-08-11T21:57:34.423Z,101490.75
2023-08-11T22:00:01.480Z,101487.53
2023-08-11T22:02:28.429Z,101496.72
2023-08-11T22:04:58.341Z,101486.47
2023-08-11T22:07:26.914Z,101488.63
2023-08-11T22:09:54.093Z,101490.31
2023-08-11T22:12:21.270Z,101490.09
2023-08-11T22:14:48.293Z,101486.47
2023-08-11T22:17:15.202Z,101484.75
2023-08-11T22:19:46.854Z,101486.47
2023-08-11T22:22:15.648Z,101489.06
2023-08-11T22:24:42.649Z,101498.25
2023-08-11T22:27:11.225Z,101487.53
2023-08-11T22:29:38.773Z,101484.75
2023-08-11T22:32:05.964Z,101489.91
2023-08-11T22:34:32.913Z,101483.06
2023-08-11T22:36:59.899Z,101481.34
2023-08-11T22:39:27.204Z,101481.97
2023-08-11T22:41:54.212Z,101475.38
2023-08-11T22:44:21.183Z,101473.63
2023-08-11T22:46:48.078Z,101477.50
2023-08-11T22:49:14.993Z,101467.44
2023-08-11T22:51:41.931Z,101470.22
2023-08-11T22:54:08.875Z,101462.94
2023-08-11T22:56:35.845Z,101460.81
2023-08-11T22:59:02.869Z,101459.09
2023-08-11T23:01:29.907Z,101462.94
2023-08-11T23:03:56.893Z,101457.16
2023-08-11T23:06:23.850Z,101463.19
2023-08-11T23:08:50.705Z,101455.69
2023-08-11T23:11:17.623Z,101447.34
2023-08-11T23:13:44.553Z,101451.81
2023-08-11T23:16:11.480Z,101456.53
2023-08-11T23:18:38.527Z,101453.75
2023-08-11T23:21:05.494Z,101455.69
2023-08-11T23:23:32.390Z,101450.13
2023-08-11T23:25:59.333Z,101443.94
2023-08-11T23:28:27.916Z,101451.19
2023-08-11T23:30:56.117Z,101443.94
2023-08-11T23:33:23.115Z,101437.28
2023-08-11T23:35:50.165Z,101432.81
2023-08-11T23:38:17.054Z,101432.81
2023-08-11T23:40:43.955Z,101446.69
2023-08-11T23:43:10.885Z,101436.63
2023-08-11T23:45:37.961Z,101443.03
2023-08-11T23:48:06.728Z,101439.41
2023-08-11T23:50:35.116Z,101436.00
2023-08-11T23:53:02.028Z,101431.72
2023-08-11T23:55:29.125Z,101429.38
2023-08-11T23:57:56.231Z,101432.16
